Time;durP1;ratioP1;P1;durP2;ratioP2;P2;SDS_P1;SDS_P2;PMS_P1;PMS_P2;Temp;Humidity;BMP_temperature;BMP_pressure;BME280_temperature;BME280_humidity;BME280_pressure;Samples;Min_cycle;Max_cycle;Signal;HPM_P1;HPM_P2
2022/02/25 00:02:08;;;;;;;3.30;0.60;;;5.20;99.90;;;;;;4979159;28;20057;-78
2022/02/25 00:04:34;;;;;;;2.47;0.57;;;5.20;99.90;;;;;;4979367;28;20475;-77
2022/02/25 00:07:00;;;;;;;1.43;0.50;;;5.20;99.90;;;;;;4979377;28;20041;-77
2022/02/25 00:09:26;;;;;;;1.37;0.50;;;5.10;99.90;;;;;;4996299;28;20042;-77
2022/02/25 00:11:52;;;;;;;1.77;0.40;;;5.10;99.90;;;;;;4978867;28;20039;-77
2022/02/25 00:14:17;;;;;;;0.90;0.37;;;5.10;99.90;;;;;;4979489;28;20033;-78
2022/02/25 00:16:43;;;;;;;1.83;0.40;;;5.10;99.90;;;;;;4978554;28;20443;-78
2022/02/25 00:19:37;;;;;;;0.70;0.40;;;5.10;99.90;;;;;;4979480;28;20077;-78
2022/02/25 00:22:02;;;;;;;0.77;0.40;;;5.10;99.90;;;;;;4979344;28;20093;-77
2022/02/25 00:24:28;;;;;;;2.70;0.43;;;5.00;99.90;;;;;;4979190;28;20117;-77
2022/02/25 00:26:54;;;;;;;2.20;0.30;;;5.00;99.90;;;;;;4978455;28;20037;-78
2022/02/25 00:29:19;;;;;;;3.47;0.40;;;4.90;99.90;;;;;;4978750;28;20040;-78
2022/02/25 00:31:45;;;;;;;3.17;0.50;;;5.00;99.90;;;;;;4978501;28;20030;-77
2022/02/25 00:34:11;;;;;;;1.43;0.33;;;4.90;99.90;;;;;;4979117;28;20494;-78
2022/02/25 00:36:36;;;;;;;2.37;0.77;;;4.90;99.90;;;;;;4978522;28;20029;-79
2022/02/25 00:39:03;;;;;;;0.87;0.50;;;4.90;99.90;;;;;;4995966;28;20050;-79
2022/02/25 00:41:29;;;;;;;3.00;0.30;;;4.80;99.90;;;;;;4978765;28;20026;-79
2022/02/25 00:43:54;;;;;;;1.70;0.40;;;4.80;99.90;;;;;;4978294;28;20094;-79
2022/02/25 00:46:20;;;;;;;6.70;0.67;;;4.80;99.90;;;;;;4978129;28;20038;-77
2022/02/25 00:48:45;;;;;;;1.40;0.30;;;4.70;99.90;;;;;;4977579;28;20026;-77
2022/02/25 00:51:11;;;;;;;2.13;0.33;;;4.70;99.90;;;;;;4978659;28;20041;-77
2022/02/25 00:53:37;;;;;;;1.47;0.20;;;4.70;99.90;;;;;;4978242;28;20026;-77
2022/02/25 00:56:02;;;;;;;3.23;0.40;;;4.70;99.90;;;;;;4977830;28;20471;-77
2022/02/25 00:58:28;;;;;;;0.60;0.20;;;4.70;99.90;;;;;;4978348;28;20027;-77
2022/02/25 01:00:53;;;;;;;2.17;0.50;;;4.70;99.90;;;;;;4977909;28;20076;-77
2022/02/25 01:03:19;;;;;;;1.80;0.40;;;4.70;99.90;;;;;;4995459;28;20482;-77
2022/02/25 01:05:45;;;;;;;5.07;0.50;;;4.70;99.90;;;;;;4978021;28;20037;-77
2022/02/25 01:08:10;;;;;;;2.07;0.40;;;4.70;99.90;;;;;;4995538;28;20066;-78
2022/02/25 01:10:37;;;;;;;2.57;0.30;;;4.70;99.90;;;;;;4978348;28;20034;-77
2022/02/25 01:13:03;;;;;;;3.03;0.40;;;4.60;99.90;;;;;;4977673;28;20076;-77
2022/02/25 01:15:30;;;;;;;0.87;0.20;;;4.60;99.90;;;;;;4978045;28;20379;-78
2022/02/25 01:17:56;;;;;;;5.00;0.50;;;4.60;99.90;;;;;;4978045;28;20054;-77
2022/02/25 01:20:21;;;;;;;2.03;0.23;;;4.60;99.90;;;;;;4978003;28;20390;-77
2022/02/25 01:22:47;;;;;;;5.33;0.70;;;4.60;99.90;;;;;;4994633;28;20480;-77
2022/02/25 01:25:14;;;;;;;2.97;0.60;;;4.60;99.90;;;;;;4977839;28;20463;-77
2022/02/25 01:27:40;;;;;;;1.57;0.50;;;4.60;99.90;;;;;;4976965;28;20027;-79
2022/02/25 01:30:07;;;;;;;2.57;0.53;;;4.60;99.90;;;;;;4977840;28;20030;-77
2022/02/25 01:32:33;;;;;;;2.97;0.50;;;4.50;99.90;;;;;;4977595;28;20482;-77
2022/02/25 01:35:00;;;;;;;1.60;0.57;;;4.50;99.90;;;;;;4994930;28;20105;-77
2022/02/25 01:37:26;;;;;;;2.60;0.63;;;4.50;99.90;;;;;;4977850;28;20498;-77
2022/02/25 01:39:53;;;;;;;1.77;0.50;;;4.50;99.90;;;;;;4977281;28;20050;-77
2022/02/25 01:42:19;;;;;;;4.27;0.50;;;4.50;99.90;;;;;;4977696;28;20490;-77
2022/02/25 01:44:45;;;;;;;2.50;0.40;;;4.50;99.90;;;;;;4994345;28;20030;-78
2022/02/25 01:47:12;;;;;;;2.17;0.30;;;4.50;99.90;;;;;;4977753;28;20037;-78
2022/02/25 01:49:39;;;;;;;1.17;0.33;;;4.50;99.90;;;;;;4977897;28;20039;-77
2022/02/25 01:52:10;;;;;;;1.10;0.30;;;4.50;99.90;;;;;;4977101;28;20096;-76
2022/02/25 01:54:36;;;;;;;3.30;0.38;;;4.50;99.90;;;;;;4994518;28;20026;-77
2022/02/25 01:57:02;;;;;;;3.33;0.40;;;4.40;99.90;;;;;;4976671;28;20031;-76
2022/02/25 01:59:30;;;;;;;4.97;0.37;;;4.30;99.90;;;;;;4976734;28;20077;-79
2022/02/25 02:01:56;;;;;;;3.53;0.60;;;4.30;99.90;;;;;;4976649;28;20038;-79
2022/02/25 02:04:23;;;;;;;4.57;0.60;;;4.30;99.90;;;;;;4977003;28;20026;-78
2022/02/25 02:06:49;;;;;;;1.30;0.30;;;4.30;99.90;;;;;;4976381;28;20057;-78
2022/02/25 02:09:15;;;;;;;4.63;0.40;;;4.20;99.90;;;;;;4976577;28;20093;-78
2022/02/25 02:11:44;;;;;;;2.83;0.57;;;4.20;99.90;;;;;;4976967;28;20034;-78
2022/02/25 02:14:13;;;;;;;5.03;0.60;;;4.20;99.90;;;;;;4976868;28;20033;-79
2022/02/25 02:16:40;;;;;;;5.83;1.47;;;4.30;99.90;;;;;;4977061;28;20033;-78
2022/02/25 02:19:06;;;;;;;2.90;0.50;;;4.20;99.90;;;;;;4976358;28;20105;-76
2022/02/25 02:21:36;;;;;;;3.10;0.40;;;4.20;99.90;;;;;;4977185;28;20031;-77
2022/02/25 02:24:02;;;;;;;2.30;0.60;;;4.30;99.90;;;;;;4993882;28;20056;-77
2022/02/25 02:26:29;;;;;;;3.37;0.43;;;4.30;99.90;;;;;;4994225;28;20022;-77
2022/02/25 02:28:54;;;;;;;3.50;0.67;;;4.30;99.90;;;;;;4976267;28;20026;-76
2022/02/25 02:31:21;;;;;;;5.53;0.70;;;4.30;99.90;;;;;;4976867;28;20030;-77
2022/02/25 02:33:46;;;;;;;6.13;0.50;;;4.20;99.90;;;;;;4976470;28;20103;-77
2022/02/25 02:36:12;;;;;;;4.23;0.53;;;4.20;99.90;;;;;;4976599;28;20047;-77
2022/02/25 02:38:38;;;;;;;2.03;0.40;;;4.20;99.90;;;;;;4976397;28;20054;-76
2022/02/25 02:41:06;;;;;;;1.80;0.27;;;4.20;99.90;;;;;;4993743;28;20035;-76
2022/02/25 02:43:32;;;;;;;4.17;0.50;;;4.20;99.90;;;;;;4976745;28;20049;-77
2022/02/25 02:45:58;;;;;;;5.30;0.60;;;4.20;99.90;;;;;;4976287;28;20117;-77
2022/02/25 02:48:24;;;;;;;6.23;0.70;;;4.10;99.90;;;;;;4976763;28;20526;-79
2022/02/25 02:50:49;;;;;;;2.67;0.50;;;4.20;99.90;;;;;;4993390;28;20076;-78
2022/02/25 02:53:15;;;;;;;5.73;0.77;;;4.10;99.90;;;;;;4976366;28;20375;-78
2022/02/25 02:55:42;;;;;;;3.10;0.50;;;4.10;99.90;;;;;;4976278;28;20530;-78
2022/02/25 02:58:08;;;;;;;3.43;0.50;;;4.10;99.90;;;;;;4975838;28;20058;-79
2022/02/25 03:00:34;;;;;;;7.90;0.80;;;4.10;99.90;;;;;;4993764;28;20088;-79
2022/02/25 03:03:00;;;;;;;3.80;0.70;;;4.10;99.90;;;;;;4975962;28;20125;-79
2022/02/25 03:05:25;;;;;;;2.00;0.60;;;4.10;99.90;;;;;;4976137;28;20463;-76
2022/02/25 03:07:52;;;;;;;7.77;0.70;;;4.10;99.90;;;;;;4975669;28;20046;-77
2022/02/25 03:10:17;;;;;;;2.23;0.60;;;4.10;99.90;;;;;;4977789;28;20034;-77
2022/02/25 03:12:44;;;;;;;4.50;0.53;;;4.10;99.90;;;;;;4980654;28;20395;-77
2022/02/25 03:15:11;;;;;;;2.53;0.40;;;4.10;99.90;;;;;;4964174;28;20097;-77
2022/02/25 03:17:37;;;;;;;3.57;0.77;;;4.00;99.90;;;;;;4980281;28;20379;-77
2022/02/25 03:20:08;;;;;;;3.20;0.50;;;4.00;99.90;;;;;;4979920;28;20027;-77
2022/02/25 03:22:34;;;;;;;4.20;0.73;;;4.00;99.90;;;;;;4980483;28;20026;-79
2022/02/25 03:25:01;;;;;;;3.30;0.67;;;4.00;99.90;;;;;;4996864;28;20037;-79
2022/02/25 03:27:28;;;;;;;3.33;0.43;;;4.00;99.90;;;;;;4980221;28;20073;-78
2022/02/25 03:29:54;;;;;;;3.07;0.80;;;4.00;99.90;;;;;;4979395;28;20037;-79
2022/02/25 03:32:20;;;;;;;4.67;0.63;;;4.00;99.90;;;;;;4997197;28;20030;-79
2022/02/25 03:34:47;;;;;;;6.53;0.80;;;4.00;99.90;;;;;;4979808;28;20456;-78
2022/02/25 03:37:13;;;;;;;3.97;0.57;;;4.00;99.90;;;;;;4979740;28;20077;-78
2022/02/25 03:39:39;;;;;;;4.37;0.70;;;4.00;99.90;;;;;;4980055;28;20073;-78
2022/02/25 03:42:05;;;;;;;1.53;0.53;;;4.00;99.90;;;;;;4979520;28;20364;-79
2022/02/25 03:44:30;;;;;;;8.50;1.00;;;4.00;99.90;;;;;;4979908;28;20431;-79
2022/02/25 03:46:56;;;;;;;5.57;0.83;;;4.00;99.90;;;;;;4996516;28;20026;-76
2022/02/25 03:49:22;;;;;;;6.53;0.90;;;4.00;99.90;;;;;;4979593;28;20443;-77
2022/02/25 03:51:48;;;;;;;4.93;0.70;;;4.00;99.90;;;;;;4979941;28;20034;-79
2022/02/25 03:54:13;;;;;;;5.93;1.03;;;4.00;99.90;;;;;;4980034;28;20419;-79
2022/02/25 03:56:39;;;;;;;2.63;0.60;;;4.00;99.90;;;;;;4979878;28;20087;-79
2022/02/25 03:59:05;;;;;;;9.63;1.10;;;3.90;99.90;;;;;;4979304;28;20037;-77
2022/02/25 04:01:31;;;;;;;3.77;0.67;;;4.00;99.90;;;;;;4978965;28;20026;-76
2022/02/25 04:03:57;;;;;;;8.03;0.93;;;3.90;99.90;;;;;;4978271;28;20027;-77
2022/02/25 04:06:22;;;;;;;5.03;0.90;;;4.00;99.90;;;;;;4979225;28;20054;-77
2022/02/25 04:08:48;;;;;;;6.67;0.97;;;3.90;99.90;;;;;;4978634;28;20479;-76
2022/02/25 04:11:15;;;;;;;8.57;0.80;;;3.90;99.90;;;;;;4979132;28;20092;-78
2022/02/25 04:13:41;;;;;;;3.97;0.60;;;3.90;99.90;;;;;;4979159;28;20095;-78
2022/02/25 04:16:07;;;;;;;7.77;0.87;;;3.90;99.90;;;;;;4978744;28;20035;-79
2022/02/25 04:18:34;;;;;;;5.20;0.63;;;3.80;99.90;;;;;;4978973;28;20034;-76
2022/02/25 04:20:59;;;;;;;3.03;0.90;;;3.90;99.90;;;;;;4995690;28;20141;-76
2022/02/25 04:23:25;;;;;;;3.40;0.70;;;3.90;99.90;;;;;;4995450;28;20492;-76
2022/02/25 04:25:51;;;;;;;6.23;0.77;;;3.90;99.90;;;;;;4978439;28;20030;-76
2022/02/25 04:28:17;;;;;;;4.80;0.77;;;3.90;99.90;;;;;;4978642;28;20126;-76
2022/02/25 04:30:42;;;;;;;10.23;1.47;;;3.90;99.90;;;;;;4978822;28;20034;-76
2022/02/25 04:33:09;;;;;;;4.63;0.60;;;3.90;99.90;;;;;;4978320;28;20034;-76
2022/02/25 04:35:35;;;;;;;6.73;0.63;;;3.90;99.90;;;;;;4978552;28;20128;-76
2022/02/25 04:38:02;;;;;;;8.10;1.10;;;3.80;99.90;;;;;;4977697;28;20517;-77
2022/02/25 04:40:28;;;;;;;2.80;0.70;;;3.80;99.90;;;;;;4978874;28;20062;-76
2022/02/25 04:42:54;;;;;;;7.10;0.90;;;3.80;99.90;;;;;;4978197;28;20038;-77
2022/02/25 04:45:19;;;;;;;4.80;1.03;;;3.80;99.90;;;;;;4978629;28;20030;-76
2022/02/25 04:47:45;;;;;;;5.17;0.90;;;3.80;99.90;;;;;;4978448;28;20027;-76
2022/02/25 04:50:12;;;;;;;5.30;0.90;;;3.80;99.90;;;;;;4994607;28;20619;-76
2022/02/25 04:52:41;;;;;;;6.23;0.90;;;3.70;99.90;;;;;;4995626;28;20026;-76
2022/02/25 04:55:08;;;;;;;7.53;0.90;;;3.70;99.90;;;;;;4977593;28;20065;-76
2022/02/25 04:57:34;;;;;;;4.10;0.80;;;3.70;99.90;;;;;;4978099;28;20033;-76
2022/02/25 04:59:59;;;;;;;6.37;1.00;;;3.70;99.90;;;;;;4995046;28;20031;-77
2022/02/25 05:02:25;;;;;;;9.00;1.53;;;3.60;99.90;;;;;;4978480;28;20078;-76
2022/02/25 05:04:51;;;;;;;8.73;1.80;;;3.60;99.90;;;;;;4977917;28;20037;-78
2022/02/25 05:07:16;;;;;;;5.47;1.13;;;3.60;99.90;;;;;;4994909;28;20153;-78
2022/02/25 05:09:42;;;;;;;7.93;1.77;;;3.60;99.90;;;;;;4977965;28;20048;-79
2022/02/25 05:12:08;;;;;;;7.33;1.30;;;3.60;99.90;;;;;;4994782;28;20070;-79
2022/02/25 05:23:02;;;;;;;7.13;1.83;;;3.50;99.90;;;;;;4951473;28;20403;-78
2022/02/25 05:25:29;;;;;;;7.87;1.37;;;3.50;99.90;;;;;;4978355;28;20035;-79
2022/02/25 05:27:58;;;;;;;5.53;1.10;;;3.50;99.90;;;;;;4977212;28;20121;-79
2022/02/25 05:30:25;;;;;;;7.90;1.20;;;3.50;99.90;;;;;;4977618;28;20522;-78
2022/02/25 05:32:51;;;;;;;5.97;0.87;;;3.50;99.90;;;;;;4994622;28;20030;-78
2022/02/25 05:35:17;;;;;;;6.93;0.90;;;3.60;99.90;;;;;;4976186;28;20026;-78
2022/02/25 05:37:44;;;;;;;3.03;0.80;;;3.50;99.90;;;;;;4994799;28;20526;-78
2022/02/25 05:40:11;;;;;;;7.23;1.40;;;3.50;99.90;;;;;;4976711;28;20054;-79
2022/02/25 05:42:38;;;;;;;6.13;1.00;;;3.50;99.90;;;;;;4994951;28;20034;-79
2022/02/25 05:45:06;;;;;;;6.43;0.97;;;3.50;99.90;;;;;;4977303;28;20030;-79
2022/02/25 05:47:31;;;;;;;6.00;0.90;;;3.50;99.90;;;;;;4977658;28;20030;-79
2022/02/25 05:49:57;;;;;;;4.63;1.00;;;3.50;99.90;;;;;;4977172;28;20535;-79
2022/02/25 05:52:23;;;;;;;5.23;0.87;;;3.50;99.90;;;;;;4977829;28;20034;-77
2022/02/25 05:54:49;;;;;;;6.53;2.23;;;3.50;99.90;;;;;;4994775;28;20053;-76
2022/02/25 05:57:16;;;;;;;6.43;1.20;;;3.50;99.90;;;;;;4977039;28;20041;-77
2022/02/25 05:59:42;;;;;;;8.77;1.43;;;3.50;99.90;;;;;;4977838;28;20034;-76
2022/02/25 06:02:07;;;;;;;5.67;1.20;;;3.50;99.90;;;;;;4976731;28;20077;-76
2022/02/25 06:04:33;;;;;;;8.30;1.40;;;3.50;99.90;;;;;;4977509;28;20066;-77
2022/02/25 06:06:59;;;;;;;7.53;1.27;;;3.50;99.90;;;;;;4976916;28;20383;-76
2022/02/25 06:09:25;;;;;;;6.03;1.43;;;3.50;99.90;;;;;;4977060;28;20116;-76
2022/02/25 06:11:51;;;;;;;8.57;1.50;;;3.50;99.90;;;;;;4977346;28;20038;-76
2022/02/25 06:14:16;;;;;;;5.90;1.30;;;3.50;99.90;;;;;;4976720;28;20044;-77
2022/02/25 06:16:42;;;;;;;7.60;1.40;;;3.50;99.90;;;;;;4977065;28;20089;-79
2022/02/25 06:19:07;;;;;;;8.63;1.50;;;3.50;99.90;;;;;;4993791;28;20030;-79
2022/02/25 06:21:34;;;;;;;7.43;1.37;;;3.50;99.90;;;;;;4993909;28;20077;-79
2022/02/25 06:23:59;;;;;;;6.17;1.10;;;3.50;99.90;;;;;;4993771;28;20514;-79
2022/02/25 06:26:25;;;;;;;6.43;1.30;;;3.50;99.90;;;;;;4977173;28;20058;-79
2022/02/25 06:28:52;;;;;;;10.07;1.30;;;3.50;99.90;;;;;;4976860;28;20376;-79
2022/02/25 06:31:18;;;;;;;3.73;1.20;;;3.50;99.90;;;;;;4993927;28;20095;-79
2022/02/25 06:33:44;;;;;;;10.53;0.93;;;3.60;99.90;;;;;;4976975;28;20061;-77
2022/02/25 06:36:10;;;;;;;10.03;1.30;;;3.50;99.90;;;;;;4976674;28;20383;-77
2022/02/25 06:38:35;;;;;;;6.30;1.27;;;3.60;99.90;;;;;;4976614;28;20065;-77
2022/02/25 06:41:01;;;;;;;5.87;1.50;;;3.60;99.90;;;;;;4976546;28;20133;-77
2022/02/25 06:43:27;;;;;;;6.23;1.23;;;3.60;99.90;;;;;;4994218;28;20030;-77
2022/02/25 06:45:52;;;;;;;10.07;1.60;;;3.60;99.90;;;;;;4979302;28;20173;-76
2022/02/25 06:48:18;;;;;;;8.40;1.20;;;3.60;99.90;;;;;;4980284;28;20205;-76
2022/02/25 06:50:44;;;;;;;5.77;1.27;;;3.60;99.90;;;;;;4980858;28;20034;-77
2022/02/25 06:53:09;;;;;;;5.67;1.70;;;3.60;99.90;;;;;;4980484;28;20030;-77
2022/02/25 06:55:35;;;;;;;7.70;1.20;;;3.60;99.90;;;;;;4980687;28;20454;-79
2022/02/25 06:58:06;;;;;;;4.23;1.23;;;3.60;99.90;;;;;;4980171;28;20037;-79
2022/02/25 07:00:36;;;;;;;8.47;1.73;;;3.60;99.90;;;;;;4980653;28;20097;-78
2022/02/25 07:03:02;;;;;;;6.13;1.33;;;3.60;99.90;;;;;;4997192;28;20034;-80
2022/02/25 07:05:28;;;;;;;6.10;0.97;;;3.70;99.90;;;;;;4980400;28;20030;-79
2022/02/25 07:07:54;;;;;;;5.63;1.40;;;3.70;99.90;;;;;;4980543;28;20030;-77
2022/02/25 07:10:20;;;;;;;7.53;1.17;;;3.80;99.90;;;;;;4979849;28;20041;-77
2022/02/25 07:12:46;;;;;;;9.77;1.50;;;3.80;99.90;;;;;;4980117;28;20073;-76
2022/02/25 07:15:13;;;;;;;6.70;1.17;;;3.80;99.90;;;;;;4979382;28;20030;-77
2022/02/25 07:17:39;;;;;;;11.07;1.53;;;3.90;99.90;;;;;;4980104;28;20117;-76
2022/02/25 07:20:07;;;;;;;4.90;1.23;;;3.90;99.90;;;;;;4979598;28;20138;-77
2022/02/25 07:22:33;;;;;;;4.60;1.10;;;3.90;99.90;;;;;;4980172;28;20092;-76
2022/02/25 07:24:59;;;;;;;8.40;1.40;;;4.00;99.90;;;;;;4980211;28;20050;-79
2022/02/25 07:27:24;;;;;;;6.37;1.30;;;4.00;99.90;;;;;;4979511;28;20027;-79
2022/02/25 07:29:52;;;;;;;5.47;1.37;;;4.00;99.90;;;;;;4979974;28;20037;-78
2022/02/25 07:32:21;;;;;;;5.87;1.20;;;4.00;99.90;;;;;;4979542;28;20468;-78
2022/02/25 07:34:47;;;;;;;7.40;1.03;;;4.00;99.90;;;;;;4979824;28;20460;-79
2022/02/25 07:37:12;;;;;;;9.70;1.43;;;3.90;99.90;;;;;;4979382;28;20037;-78
2022/02/25 07:39:38;;;;;;;7.30;1.03;;;3.90;99.90;;;;;;4979657;28;20058;-79
2022/02/25 07:42:04;;;;;;;8.23;1.30;;;3.90;99.90;;;;;;4979439;28;20030;-79
2022/02/25 07:44:30;;;;;;;4.17;0.87;;;3.90;99.90;;;;;;4997168;28;20027;-79
2022/02/25 07:46:55;;;;;;;6.73;1.33;;;4.00;99.90;;;;;;4979412;28;20386;-79
2022/02/25 07:49:21;;;;;;;9.47;1.37;;;3.90;99.90;;;;;;4979180;28;20330;-77
2022/02/25 07:51:51;;;;;;;4.40;1.23;;;4.00;99.90;;;;;;4979649;28;20037;-76
2022/02/25 07:54:18;;;;;;;6.23;0.93;;;4.00;99.90;;;;;;4979050;28;20034;-79
2022/02/25 07:56:44;;;;;;;6.63;1.30;;;4.10;99.90;;;;;;4978560;28;20153;-79
2022/02/25 07:59:09;;;;;;;8.30;1.30;;;4.20;99.90;;;;;;4978835;28;20098;-79
2022/02/25 08:01:35;;;;;;;4.70;1.00;;;4.20;99.90;;;;;;4996744;28;20384;-79
2022/02/25 08:04:01;;;;;;;4.07;1.03;;;4.20;99.90;;;;;;4979507;28;20030;-79
2022/02/25 08:06:26;;;;;;;5.50;1.43;;;4.30;99.90;;;;;;4978754;28;20023;-79
2022/02/25 08:08:52;;;;;;;8.10;1.77;;;4.30;99.90;;;;;;4979229;28;20038;-79
2022/02/25 08:11:18;;;;;;;7.90;1.10;;;4.20;99.90;;;;;;4978969;28;20031;-79
2022/02/25 08:13:44;;;;;;;4.77;1.10;;;4.20;99.90;;;;;;4996494;28;20026;-79
2022/02/25 08:16:10;;;;;;;5.37;1.20;;;4.20;99.90;;;;;;4978368;28;20031;-79
2022/02/25 08:18:35;;;;;;;4.63;1.03;;;4.10;99.90;;;;;;4978489;28;20034;-77
2022/02/25 08:21:02;;;;;;;5.37;1.20;;;4.20;99.90;;;;;;4978403;28;20068;-78
2022/02/25 08:23:27;;;;;;;9.23;1.37;;;4.20;99.90;;;;;;4978387;28;20027;-77
2022/02/25 08:25:54;;;;;;;6.60;1.60;;;4.20;99.90;;;;;;4978716;28;20045;-78
2022/02/25 08:28:21;;;;;;;10.63;2.13;;;4.20;99.90;;;;;;4978248;28;20031;-76
2022/02/25 08:30:47;;;;;;;5.63;1.37;;;4.30;99.90;;;;;;4978612;28;20038;-76
2022/02/25 08:33:13;;;;;;;8.30;1.33;;;4.30;99.90;;;;;;4995667;28;20026;-78
2022/02/25 08:35:39;;;;;;;8.07;1.30;;;4.40;99.90;;;;;;4978491;28;20027;-77
2022/02/25 08:38:07;;;;;;;9.30;1.67;;;4.40;99.90;;;;;;4977420;28;20121;-78
2022/02/25 08:40:33;;;;;;;10.23;1.60;;;4.40;99.90;;;;;;4978610;28;20049;-77
2022/02/25 08:42:59;;;;;;;7.97;1.80;;;4.50;99.90;;;;;;4978475;28;20022;-77
2022/02/25 08:45:25;;;;;;;8.03;1.50;;;4.60;99.90;;;;;;4978181;28;20101;-77
2022/02/25 08:47:52;;;;;;;4.90;1.13;;;4.60;99.90;;;;;;4978553;28;20100;-77
2022/02/25 08:50:19;;;;;;;3.33;1.20;;;4.60;99.90;;;;;;4978203;28;20543;-78
2022/02/25 08:52:48;;;;;;;5.97;1.20;;;4.70;99.90;;;;;;4978483;28;20026;-78
2022/02/25 08:55:14;;;;;;;7.97;1.50;;;4.70;99.90;;;;;;4978200;28;20101;-77
2022/02/25 08:57:40;;;;;;;5.23;1.20;;;4.80;99.90;;;;;;4978489;28;20438;-77
2022/02/25 09:00:07;;;;;;;5.23;1.43;;;4.90;99.90;;;;;;4978631;28;20120;-77
2022/02/25 09:02:33;;;;;;;5.90;1.17;;;4.90;99.90;;;;;;4978062;28;20037;-77
2022/02/25 09:05:00;;;;;;;7.57;1.47;;;5.00;99.90;;;;;;4978173;28;20023;-77
2022/02/25 09:07:26;;;;;;;7.87;1.50;;;5.00;99.90;;;;;;4977297;28;20451;-77
2022/02/25 09:09:52;;;;;;;7.27;1.13;;;5.10;99.90;;;;;;4977698;28;20035;-77
2022/02/25 09:12:17;;;;;;;5.37;1.30;;;5.10;99.90;;;;;;4977773;28;20027;-77
2022/02/25 09:14:43;;;;;;;7.17;1.37;;;5.20;99.90;;;;;;4977752;28;20033;-77
2022/02/25 09:17:09;;;;;;;8.13;1.60;;;5.30;99.90;;;;;;4977341;28;20057;-78
2022/02/25 09:19:34;;;;;;;7.83;1.27;;;5.40;99.90;;;;;;4994574;28;20105;-77
2022/02/25 09:22:01;;;;;;;7.43;1.10;;;5.50;99.90;;;;;;4977591;28;20030;-78
2022/02/25 09:24:27;;;;;;;7.43;1.50;;;5.60;99.90;;;;;;4977277;28;20029;-77
2022/02/25 09:26:52;;;;;;;6.67;1.40;;;5.60;99.90;;;;;;4977366;28;20475;-78
2022/02/25 09:29:18;;;;;;;10.33;1.53;;;5.70;99.90;;;;;;4977039;28;20034;-78
2022/02/25 09:31:44;;;;;;;5.37;1.37;;;5.80;99.90;;;;;;4994902;28;20049;-78
2022/02/25 09:34:09;;;;;;;6.80;1.70;;;5.80;99.90;;;;;;4976304;28;20077;-78
2022/02/25 09:36:35;;;;;;;5.60;1.40;;;5.90;99.90;;;;;;4977537;28;20463;-77
2022/02/25 09:39:01;;;;;;;10.97;2.10;;;5.90;99.90;;;;;;4994949;28;20220;-77
2022/02/25 09:41:27;;;;;;;9.37;1.60;;;5.90;99.90;;;;;;4977204;28;20468;-77
2022/02/25 09:43:53;;;;;;;11.10;1.80;;;5.90;99.90;;;;;;4977284;28;20022;-77
2022/02/25 09:46:18;;;;;;;10.10;1.70;;;5.90;99.90;;;;;;4993872;28;20041;-76
2022/02/25 09:48:44;;;;;;;6.50;1.50;;;5.90;99.90;;;;;;4977026;28;20030;-76
2022/02/25 09:51:10;;;;;;;8.33;1.57;;;5.90;99.90;;;;;;4976625;28;20169;-78
2022/02/25 09:53:36;;;;;;;8.00;1.27;;;5.90;99.90;;;;;;4977358;28;20468;-75
2022/02/25 09:56:02;;;;;;;13.73;2.07;;;6.00;99.90;;;;;;4972782;28;20033;-76
2022/02/25 09:58:28;;;;;;;7.27;1.70;;;6.00;99.90;;;;;;4976949;28;20413;-76
2022/02/25 10:00:53;;;;;;;9.67;1.50;;;6.00;99.90;;;;;;4993885;28;20113;-77
2022/02/25 10:03:21;;;;;;;8.90;1.80;;;6.00;99.90;;;;;;4976128;28;20026;-77
2022/02/25 10:05:48;;;;;;;12.53;1.77;;;6.10;99.90;;;;;;4976709;28;20030;-77
2022/02/25 10:08:21;;;;;;;5.67;1.37;;;6.10;99.90;;;;;;4975540;28;20073;-77
2022/02/25 10:10:48;;;;;;;6.77;1.47;;;6.10;99.90;;;;;;4976470;28;20526;-77
2022/02/25 10:13:17;;;;;;;10.67;1.33;;;6.20;99.90;;;;;;4976009;28;20058;-77
2022/02/25 10:15:44;;;;;;;6.67;1.30;;;6.10;99.90;;;;;;4976953;28;20068;-77
2022/02/25 10:18:23;;;;;;;7.40;1.70;;;6.10;99.90;;;;;;4976631;28;20034;-76
2022/02/25 10:20:49;;;;;;;9.60;1.70;;;6.10;99.90;;;;;;4976634;28;20026;-77
2022/02/25 10:23:34;;;;;;;5.63;1.70;;;6.20;99.90;;;;;;4994001;28;20101;-76
2022/02/25 10:26:21;;;;;;;7.47;1.63;;;6.40;99.70;;;;;;4976059;28;20113;-77
2022/02/25 10:28:58;;;;;;;7.77;1.67;;;6.60;99.50;;;;;;4975882;28;20030;-76
2022/02/25 10:31:30;;;;;;;9.57;1.50;;;6.70;99.50;;;;;;4992985;28;20027;-76
2022/02/25 10:34:11;;;;;;;6.40;1.92;;;6.80;99.30;;;;;;4976540;28;20364;-76
2022/02/25 10:36:47;;;;;;;6.47;1.50;;;6.90;99.70;;;;;;4975764;28;20034;-76
2022/02/25 10:39:24;;;;;;;6.17;1.50;;;7.00;98.80;;;;;;4975708;28;20058;-76
2022/02/25 10:42:04;;;;;;;4.93;1.20;;;7.00;98.90;;;;;;4976896;28;20034;-77
2022/02/25 10:44:44;;;;;;;5.13;1.30;;;7.00;98.70;;;;;;4975720;28;20037;-76
2022/02/25 10:47:33;;;;;;;9.57;1.33;;;7.00;98.80;;;;;;4976667;28;20471;-77
2022/02/25 10:50:08;;;;;;;5.70;0.90;;;7.10;99.30;;;;;;4963376;28;20395;-75
2022/02/25 10:52:40;;;;;;;6.63;1.10;;;7.00;98.50;;;;;;4974886;28;20042;-76
2022/02/25 10:55:12;;;;;;;6.72;1.45;;;7.20;98.90;;;;;;4992914;28;20031;-77
2022/02/25 10:57:38;;;;;;;12.23;1.50;;;7.20;98.80;;;;;;4976337;28;20383;-77
2022/02/25 11:00:11;;;;;;;6.30;1.00;;;7.30;98.30;;;;;;4976357;28;20031;-77
2022/02/25 11:02:47;;;;;;;6.93;1.53;;;7.30;98.80;;;;;;4975660;28;20030;-76
2022/02/25 11:05:19;;;;;;;6.77;1.47;;;7.30;98.70;;;;;;4975713;28;20022;-81
2022/02/25 11:07:50;;;;;;;3.67;1.20;;;7.10;98.00;;;;;;4976057;28;20031;-77
2022/02/25 11:10:21;;;;;;;7.40;1.30;;;7.10;98.90;;;;;;4992668;28;20188;-77
2022/02/25 11:12:49;;;;;;;5.47;1.30;;;7.10;98.60;;;;;;4976618;28;20113;-77
2022/02/25 11:15:17;;;;;;;4.80;1.20;;;7.00;98.40;;;;;;4975043;28;20117;-78
2022/02/25 11:17:45;;;;;;;8.03;1.67;;;7.00;98.40;;;;;;4976133;28;20022;-77
2022/02/25 11:20:12;;;;;;;7.27;1.17;;;6.90;99.20;;;;;;4975932;28;20505;-77
2022/02/25 11:22:42;;;;;;;5.17;1.60;;;6.90;99.40;;;;;;4975605;28;20491;-77
2022/02/25 11:25:14;;;;;;;7.30;1.43;;;6.90;98.90;;;;;;4975802;28;20476;-78
2022/02/25 11:27:41;;;;;;;6.57;1.27;;;6.90;99.60;;;;;;4960348;28;20019;-77
2022/02/25 11:30:10;;;;;;;6.43;1.03;;;6.90;99.00;;;;;;4975224;28;20034;-77
2022/02/25 11:32:46;;;;;;;8.90;1.43;;;6.90;99.30;;;;;;4978415;28;20040;-77
2022/02/25 11:35:21;;;;;;;3.37;0.90;;;7.00;98.60;;;;;;4978987;28;20126;-78
2022/02/25 11:37:52;;;;;;;6.23;0.80;;;6.90;98.20;;;;;;4996786;28;20026;-78
2022/02/25 11:40:46;;;;;;;12.88;1.50;;;7.00;98.20;;;;;;4978638;28;20085;-78
2022/02/25 11:43:12;;;;;;;7.47;1.50;;;7.10;97.70;;;;;;4979089;28;20026;-77
2022/02/25 11:45:52;;;;;;;9.00;1.57;;;7.10;98.30;;;;;;4995660;28;20464;-77
2022/02/25 11:48:38;;;;;;;3.40;1.13;;;7.10;98.10;;;;;;4978179;28;20034;-76
2022/02/25 11:51:04;;;;;;;4.67;1.10;;;7.10;98.00;;;;;;4965271;28;20038;-76
2022/02/25 11:53:30;;;;;;;4.87;1.13;;;7.10;97.30;;;;;;4978461;28;20439;-76
2022/02/25 11:56:17;;;;;;;10.27;1.70;;;7.20;97.90;;;;;;4978814;28;20026;-77
2022/02/25 11:58:49;;;;;;;7.37;1.13;;;7.30;98.00;;;;;;4978819;28;20097;-76
2022/02/25 12:01:18;;;;;;;;;;;7.30;97.10;;;;;;4978425;28;20117;-76
2022/02/25 12:04:05;;;;;;;10.53;3.40;;;7.30;95.30;;;;;;4978900;28;19910;-77
2022/02/25 12:06:55;;;;;;;13.90;3.60;;;7.30;95.00;;;;;;4995428;28;20026;-77
2022/02/25 12:09:39;;;;;;;19.30;4.80;;;7.30;95.30;;;;;;4977727;28;20078;-75
2022/02/25 12:12:23;;;;;;;13.87;3.90;;;7.30;94.70;;;;;;4995711;28;20057;-76
2022/02/25 12:15:07;;;;;;;9.20;2.47;;;7.30;93.40;;;;;;4978599;28;20030;-76
2022/02/25 12:17:48;;;;;;;11.20;2.10;;;7.30;93.20;;;;;;4977584;28;20401;-75
2022/02/25 12:20:25;;;;;;;12.57;2.43;;;7.30;93.40;;;;;;4977791;28;20100;-79
2022/02/25 12:22:57;;;;;;;3.77;1.17;;;7.30;94.10;;;;;;4995669;28;20391;-76
2022/02/25 12:25:44;;;;;;;7.72;1.30;;;7.30;94.50;;;;;;4994372;28;20058;-76
2022/02/25 12:28:28;;;;;;;8.67;1.03;;;7.30;95.10;;;;;;4995806;28;20026;-77
2022/02/25 12:31:01;;;;;;;11.67;1.60;;;7.30;95.00;;;;;;4978512;28;20563;-77
2022/02/25 12:33:44;;;;;;;6.07;1.20;;;7.30;96.40;;;;;;4977570;28;20026;-76
2022/02/25 12:36:28;;;;;;;5.27;1.13;;;7.30;96.20;;;;;;4978353;28;20032;-77
2022/02/25 12:39:01;;;;;;;7.17;1.13;;;7.30;96.60;;;;;;4995767;28;20127;-76
2022/02/25 12:41:30;;;;;;;9.67;1.20;;;7.20;98.50;;;;;;4994490;28;20019;-75
2022/02/25 12:43:59;;;;;;;7.00;0.93;;;7.00;99.60;;;;;;4977203;28;20026;-76
2022/02/25 12:46:28;;;;;;;5.80;0.90;;;6.90;99.90;;;;;;4976920;28;20027;-76
2022/02/25 12:48:54;;;;;;;15.03;1.30;;;6.80;99.90;;;;;;4978530;28;20467;-80
2022/02/25 12:51:22;;;;;;;4.33;1.00;;;6.70;99.90;;;;;;4977984;28;20057;-81
2022/02/25 12:53:57;;;;;;;12.13;1.23;;;6.70;99.90;;;;;;4995595;28;20117;-81
2022/02/25 12:56:32;;;;;;;7.30;1.20;;;6.50;99.90;;;;;;4987082;28;20109;-80
2022/02/25 12:59:18;;;;;;;7.63;0.70;;;6.30;99.90;;;;;;4978702;28;20030;-80
2022/02/25 13:01:55;;;;;;;8.93;1.47;;;6.40;99.90;;;;;;4963938;28;20153;-80
2022/02/25 13:04:24;;;;;;;9.83;1.40;;;6.40;99.90;;;;;;4978090;28;20026;-80
2022/02/25 13:06:51;;;;;;;4.70;1.30;;;6.60;99.90;;;;;;4978024;28;20085;-81
2022/02/25 13:09:26;;;;;;;10.17;1.43;;;6.70;99.90;;;;;;4977744;28;20096;-80